createdAt,value
2023-03-10T00:01:12.690Z,22.35
2023-03-10T00:03:39.862Z,21.25
2023-03-10T00:06:07.749Z,23.20
2023-03-10T00:08:34.899Z,22.23
2023-03-10T00:11:02.100Z,21.60
2023-03-10T00:13:28.993Z,21.67
2023-03-10T00:15:55.932Z,22.80
2023-03-10T00:18:23.159Z,22.38
2023-03-10T00:20:54.651Z,22.33
2023-03-10T00:23:22.379Z,22.25
2023-03-10T00:25:57.237Z,21.27
2023-03-10T00:28:25.053Z,23.77
2023-03-10T00:31:00.547Z,22.27
2023-03-10T00:33:27.809Z,20.77
2023-03-10T00:36:09.314Z,21.08
2023-03-10T00:38:37.425Z,22.40
2023-03-10T00:41:07.197Z,20.90
2023-03-10T00:43:35.209Z,22.25
2023-03-10T00:46:02.838Z,21.05
2023-03-10T00:48:29.891Z,21.08
2023-03-10T00:50:57.247Z,19.92
2023-03-10T00:53:24.482Z,20.98
2023-03-10T00:56:05.337Z,21.38
2023-03-10T00:58:33.077Z,23.92
2023-03-10T01:01:00.847Z,22.48
2023-03-10T01:03:28.520Z,18.90
2023-03-10T01:05:56.112Z,20.98
2023-03-10T01:08:23.580Z,23.88
2023-03-10T01:10:50.578Z,21.27
2023-03-10T01:13:18.993Z,21.52
2023-03-10T01:15:47.876Z,24.92
2023-03-10T01:18:15.791Z,21.10
2023-03-10T01:20:44.619Z,19.90
2023-03-10T01:23:17.210Z,21.52
2023-03-10T01:25:44.585Z,19.95
2023-03-10T01:28:11.787Z,19.40
2023-03-10T01:30:39.476Z,19.48
2023-03-10T01:33:07.307Z,21.20
2023-03-10T01:35:34.756Z,21.10
2023-03-10T01:38:02.165Z,19.58
2023-03-10T01:40:29.293Z,17.27
2023-03-10T01:43:29.070Z,22.08
2023-03-10T01:46:01.844Z,20.80
2023-03-10T01:48:32.966Z,21.88
2023-03-10T01:51:00.489Z,23.88
2023-03-10T01:53:28.763Z,23.60
2023-03-10T01:56:00.788Z,24.42
2023-03-10T01:58:34.503Z,21.52
2023-03-10T02:01:01.727Z,21.85
2023-03-10T02:03:34.484Z,22.90
2023-03-10T02:06:06.300Z,21.40
2023-03-10T02:08:44.572Z,23.83
2023-03-10T02:11:13.310Z,23.77
2023-03-10T02:13:40.536Z,24.70
2023-03-10T02:16:08.006Z,22.63
2023-03-10T02:18:35.131Z,23.60
2023-03-10T02:21:22.910Z,24.10
2023-03-10T02:24:12.046Z,21.70
2023-03-10T02:27:12.767Z,23.50
2023-03-10T02:29:59.234Z,17.83
2023-03-10T02:32:28.987Z,21.42
2023-03-10T02:34:55.953Z,19.60
2023-03-10T02:37:26.255Z,20.58
2023-03-10T02:39:53.060Z,20.35
2023-03-10T02:42:20.863Z,19.98
2023-03-10T02:44:49.321Z,19.33
2023-03-10T02:47:16.519Z,18.77
2023-03-10T02:49:43.793Z,18.33
2023-03-10T02:52:29.260Z,23.25
2023-03-10T02:54:56.115Z,19.88
2023-03-10T02:57:23.046Z,18.85
2023-03-10T02:59:49.857Z,21.67
2023-03-10T03:02:16.675Z,19.52
2023-03-10T03:04:43.446Z,20.98
2023-03-10T03:07:10.301Z,19.23
2023-03-10T03:09:37.225Z,21.70
2023-03-10T03:12:04.274Z,20.25
2023-03-10T03:14:31.168Z,19.52
2023-03-10T03:16:58.067Z,21.17
2023-03-10T03:19:24.968Z,17.77
2023-03-10T03:21:51.898Z,20.40
2023-03-10T03:24:21.263Z,20.83
2023-03-10T03:26:48.201Z,17.48
2023-03-10T03:29:15.328Z,18.20
2023-03-10T03:31:43.399Z,20.65
2023-03-10T03:34:10.422Z,18.88
2023-03-10T03:36:37.965Z,20.10
2023-03-10T03:39:07.073Z,20.48
2023-03-10T03:41:34.518Z,22.75
2023-03-10T03:44:01.392Z,22.13
2023-03-10T03:46:28.494Z,22.77
2023-03-10T03:48:55.367Z,21.83
2023-03-10T03:51:22.211Z,24.67
2023-03-10T03:53:49.053Z,24.98
2023-03-10T03:56:15.883Z,22.02
2023-03-10T03:58:42.788Z,21.50
2023-03-10T04:01:10.042Z,21.65
2023-03-10T04:03:37.063Z,22.73
2023-03-10T04:06:05.955Z,22.67
2023-03-10T04:08:32.779Z,25.20
2023-03-10T04:10:59.612Z,27.92
2023-03-10T04:13:26.393Z,26.25
2023-03-10T04:15:58.488Z,27.08
2023-03-10T04:18:25.599Z,28.55
2023-03-10T04:20:52.456Z,27.90
2023-03-10T04:23:19.481Z,26.52
2023-03-10T04:25:46.242Z,26.88
2023-03-10T04:28:13.112Z,28.67
2023-03-10T04:30:43.432Z,25.05
2023-03-10T04:33:11.205Z,25.52
2023-03-10T04:35:44.729Z,23.00
2023-03-10T04:38:11.529Z,21.13
2023-03-10T04:40:38.326Z,22.38
2023-03-10T04:43:05.483Z,23.58
2023-03-10T04:45:32.474Z,24.42
2023-03-10T04:47:59.276Z,20.23
2023-03-10T04:50:26.360Z,18.98
2023-03-10T04:52:53.278Z,20.25
2023-03-10T04:55:20.542Z,17.98
2023-03-10T04:57:47.371Z,20.58
2023-03-10T05:00:14.467Z,18.92
2023-03-10T05:02:42.005Z,20.67
2023-03-10T05:05:09.485Z,19.15
2023-03-10T05:07:36.407Z,18.08
2023-03-10T05:10:04.088Z,14.73
2023-03-10T05:12:31.012Z,19.20
2023-03-10T05:14:57.831Z,20.92
2023-03-10T05:17:25.361Z,19.42
2023-03-10T05:19:52.229Z,14.95
2023-03-10T05:22:19.040Z,16.15
2023-03-10T05:24:46.051Z,14.65
2023-03-10T05:27:13.935Z,16.05
2023-03-10T05:29:41.032Z,15.85
2023-03-10T05:32:08.106Z,26.38
2023-03-10T05:34:34.945Z,16.23
2023-03-10T05:37:01.917Z,15.45
2023-03-10T05:39:28.799Z,16.35
2023-03-10T05:41:55.720Z,16.85
2023-03-10T05:44:22.605Z,16.65
2023-03-10T05:46:49.567Z,17.02
2023-03-10T05:49:16.510Z,17.73
2023-03-10T05:51:43.401Z,18.02
2023-03-10T05:54:10.324Z,16.58
2023-03-10T05:56:37.244Z,17.52
2023-03-10T05:59:04.570Z,17.42
2023-03-10T06:01:31.407Z,14.55
2023-03-10T06:03:58.439Z,16.38
2023-03-10T06:06:25.324Z,18.23
2023-03-10T06:08:52.221Z,17.70
2023-03-10T06:11:19.802Z,17.25
2023-03-10T06:13:46.635Z,16.63
2023-03-10T06:16:13.623Z,15.68
2023-03-10T06:18:40.658Z,16.88
2023-03-10T06:21:09.947Z,17.33
2023-03-10T06:23:37.475Z,15.05
2023-03-10T06:26:07.155Z,18.80
2023-03-10T06:28:36.872Z,16.83
2023-03-10T06:31:07.263Z,17.10
2023-03-10T06:33:35.373Z,16.52
2023-03-10T06:36:02.541Z,18.67
2023-03-10T06:38:30.472Z,17.42
2023-03-10T06:40:57.942Z,16.50
2023-03-10T06:43:25.198Z,16.80
2023-03-10T06:45:52.308Z,19.35
2023-03-10T06:48:19.114Z,15.85
2023-03-10T06:50:50.270Z,19.13
2023-03-10T06:53:19.694Z,18.13
2023-03-10T06:55:58.035Z,18.30
2023-03-10T06:58:25.106Z,20.33
2023-03-10T07:00:52.121Z,20.05
2023-03-10T07:03:19.463Z,19.35
2023-03-10T07:05:46.475Z,22.40
2023-03-10T07:08:13.412Z,23.00
2023-03-10T07:10:40.305Z,20.17
2023-03-10T07:13:07.956Z,21.80
2023-03-10T07:15:34.895Z,20.85
2023-03-10T07:18:01.783Z,22.58
2023-03-10T07:20:28.743Z,23.85
2023-03-10T07:22:55.532Z,23.73
2023-03-10T07:25:22.426Z,25.05
2023-03-10T07:27:49.263Z,25.42
2023-03-10T07:30:16.257Z,26.92
2023-03-10T07:32:43.101Z,23.98
2023-03-10T07:35:10.490Z,31.70
2023-03-10T07:37:40.711Z,26.63
2023-03-10T07:40:08.757Z,27.05
2023-03-10T07:42:35.693Z,26.23
2023-03-10T07:45:02.885Z,26.92
2023-03-10T07:47:29.945Z,27.50
2023-03-10T07:49:56.819Z,27.17
2023-03-10T07:52:23.795Z,24.67
2023-03-10T07:54:50.883Z,26.23
2023-03-10T07:57:17.766Z,29.67
2023-03-10T07:59:44.627Z,24.67
2023-03-10T08:02:15.353Z,26.58
2023-03-10T08:04:42.943Z,29.48
2023-03-10T08:07:10.048Z,27.63
2023-03-10T08:09:37.002Z,25.33
2023-03-10T08:12:04.504Z,27.73
2023-03-10T08:14:32.472Z,25.05
2023-03-10T08:16:59.732Z,24.65
2023-03-10T08:19:27.806Z,26.42
2023-03-10T08:21:56.309Z,24.10
2023-03-10T08:24:23.826Z,25.17
2023-03-10T08:26:51.079Z,27.27
2023-03-10T08:29:18.303Z,23.80
2023-03-10T08:31:45.878Z,26.20
2023-03-10T08:34:13.505Z,22.73
2023-03-10T08:36:41.222Z,23.25
2023-03-10T08:39:08.987Z,26.13
2023-03-10T08:41:48.918Z,21.10
2023-03-10T08:44:18.378Z,20.95
2023-03-10T08:46:47.907Z,23.27
2023-03-10T08:49:16.752Z,22.33
2023-03-10T08:51:44.141Z,22.65
2023-03-10T08:54:13.732Z,24.42
2023-03-10T08:56:40.645Z,20.77
2023-03-10T08:59:07.531Z,23.02
2023-03-10T09:01:36.471Z,24.30
2023-03-10T09:04:06.182Z,22.50
2023-03-10T09:06:33.854Z,24.55
2023-03-10T09:09:00.859Z,26.33
2023-03-10T09:11:31.594Z,22.58
2023-03-10T09:13:59.488Z,21.05
2023-03-10T09:16:28.693Z,19.10
2023-03-10T09:18:59.328Z,20.13
2023-03-10T09:21:27.781Z,22.85
2023-03-10T09:23:54.666Z,20.80
2023-03-10T09:26:22.028Z,22.20
2023-03-10T09:28:50.904Z,21.42
2023-03-10T09:31:21.635Z,18.88
2023-03-10T09:33:48.653Z,20.70
2023-03-10T09:36:16.453Z,20.48
2023-03-10T09:38:43.728Z,20.60
2023-03-10T09:41:10.741Z,21.58
2023-03-10T09:43:42.515Z,21.83
2023-03-10T09:46:25.740Z,21.98
2023-03-10T09:48:52.505Z,23.67
2023-03-10T09:51:24.365Z,21.52
2023-03-10T09:54:11.582Z,20.92
2023-03-10T09:56:38.714Z,21.00
2023-03-10T09:59:17.309Z,19.63
2023-03-10T10:01:47.866Z,23.85
2023-03-10T10:04:25.104Z,25.55
2023-03-10T10:06:52.089Z,20.45
2023-03-10T10:09:42.210Z,21.17
2023-03-10T10:12:13.395Z,22.83
2023-03-10T10:14:48.051Z,21.38
2023-03-10T10:17:30.956Z,19.40
2023-03-10T10:19:59.298Z,23.58
2023-03-10T10:22:32.122Z,22.75
2023-03-10T10:25:25.665Z,22.92
2023-03-10T10:27:55.298Z,22.65
2023-03-10T10:30:35.964Z,22.08
2023-03-10T10:33:13.715Z,22.48
2023-03-10T10:35:59.611Z,22.52
2023-03-10T10:38:32.476Z,25.35
2023-03-10T10:41:05.078Z,26.60
2023-03-10T10:43:42.527Z,24.70
2023-03-10T10:46:11.266Z,23.50
2023-03-10T10:48:47.052Z,26.23
2023-03-10T10:51:35.791Z,23.67
2023-03-10T10:54:36.383Z,25.48
2023-03-10T10:57:03.754Z,27.15
2023-03-10T10:59:35.754Z,25.60
2023-03-10T11:02:20.566Z,28.15
2023-03-10T11:04:47.629Z,27.75
2023-03-10T11:07:19.681Z,27.67
2023-03-10T11:09:47.907Z,28.73
2023-03-10T11:12:38.533Z,25.88
2023-03-10T11:15:06.986Z,27.58
2023-03-10T11:17:52.401Z,27.10
2023-03-10T11:20:39.187Z,25.58
2023-03-10T11:23:25.899Z,28.92
2023-03-10T11:26:04.029Z,26.30
2023-03-10T11:28:36.889Z,24.35
2023-03-10T11:31:28.514Z,28.63
2023-03-10T11:33:55.396Z,28.48
2023-03-10T11:36:38.454Z,28.08
2023-03-10T11:39:34.205Z,34.33
2023-03-10T11:42:29.331Z,29.00
2023-03-10T11:45:18.461Z,26.88
2023-03-10T11:47:59.622Z,31.10
2023-03-10T11:50:54.856Z,27.70
2023-03-10T11:53:24.776Z,27.17
2023-03-10T11:55:53.608Z,30.13
2023-03-10T11:58:48.526Z,28.00
2023-03-10T12:01:23.361Z,28.67
2023-03-10T12:04:05.240Z,27.45
2023-03-10T12:06:42.084Z,26.63
2023-03-10T12:09:18.386Z,25.70
2023-03-10T12:11:46.165Z,30.75
2023-03-10T12:14:15.316Z,26.83
2023-03-10T12:16:42.804Z,27.38
2023-03-10T12:19:09.656Z,26.95
2023-03-10T12:21:36.669Z,22.65
2023-03-10T12:24:05.008Z,29.38
2023-03-10T12:26:37.913Z,26.60
2023-03-10T12:29:27.280Z,26.48
2023-03-10T12:31:55.217Z,24.73
2023-03-10T12:34:32.681Z,27.55
2023-03-10T12:37:21.694Z,25.02
2023-03-10T12:39:48.638Z,27.98
2023-03-10T12:42:35.231Z,24.67
2023-03-10T12:45:21.436Z,26.05
2023-03-10T12:48:00.043Z,29.88
2023-03-10T12:50:50.331Z,29.85
2023-03-10T12:53:35.936Z,26.50
2023-03-10T12:56:11.922Z,25.27
2023-03-10T12:59:05.222Z,27.45
2023-03-10T13:01:40.556Z,26.15
2023-03-10T13:04:15.793Z,27.08
2023-03-10T13:06:46.417Z,29.77
2023-03-10T13:09:14.538Z,28.45
2023-03-10T13:11:45.305Z,28.10
2023-03-10T13:14:21.641Z,26.73
2023-03-10T13:16:56.909Z,26.65
2023-03-10T13:19:26.625Z,26.77
2023-03-10T13:21:53.762Z,27.40
2023-03-10T13:24:23.852Z,28.30
2023-03-10T13:27:03.463Z,28.08
2023-03-10T13:29:30.662Z,27.50
2023-03-10T13:31:57.583Z,32.38
2023-03-10T13:34:28.637Z,26.60
2023-03-10T13:37:06.290Z,29.45
2023-03-10T13:39:33.362Z,25.33
2023-03-10T13:42:02.215Z,28.15
2023-03-10T13:44:33.968Z,26.27
2023-03-10T13:47:04.365Z,30.45
2023-03-10T13:49:33.561Z,28.27
2023-03-10T13:52:05.212Z,28.38
2023-03-10T13:54:37.038Z,28.67
2023-03-10T13:57:34.572Z,31.02
2023-03-10T14:00:07.069Z,31.63
2023-03-10T14:02:36.876Z,29.92
2023-03-10T14:05:06.796Z,30.73
2023-03-10T14:07:37.008Z,31.90
2023-03-10T14:10:03.871Z,41.92
2023-03-10T14:12:48.932Z,35.17
2023-03-10T14:15:38.801Z,29.90
2023-03-10T14:18:09.440Z,33.38
2023-03-10T14:20:47.512Z,29.30
2023-03-10T14:23:23.198Z,26.42
2023-03-10T14:25:52.893Z,27.48
2023-03-10T14:28:19.825Z,29.13
2023-03-10T14:30:46.763Z,26.60
2023-03-10T14:33:15.688Z,29.13
2023-03-10T14:35:46.288Z,27.45
2023-03-10T14:38:13.189Z,25.70
2023-03-10T14:40:46.153Z,24.02
2023-03-10T14:43:31.731Z,24.85
2023-03-10T14:46:01.334Z,24.58
2023-03-10T14:48:30.836Z,26.90
2023-03-10T14:50:57.834Z,24.65
2023-03-10T14:53:26.331Z,27.60
2023-03-10T14:55:58.505Z,24.25
2023-03-10T14:58:35.042Z,25.42
2023-03-10T15:01:02.270Z,24.20
2023-03-10T15:03:29.122Z,25.67
2023-03-10T15:05:55.980Z,26.95
2023-03-10T15:08:23.508Z,25.10
2023-03-10T15:10:52.024Z,23.52
2023-03-10T15:13:21.565Z,22.75
2023-03-10T15:15:49.320Z,22.17
2023-03-10T15:18:19.439Z,24.10
2023-03-10T15:20:46.560Z,23.77
2023-03-10T15:23:17.119Z,24.10
2023-03-10T15:25:46.063Z,24.25
2023-03-10T15:28:14.083Z,23.50
2023-03-10T15:30:41.502Z,23.88
2023-03-10T15:33:08.518Z,22.35
2023-03-10T15:35:35.604Z,23.95
2023-03-10T15:38:02.878Z,21.67
2023-03-10T15:40:32.316Z,23.13
2023-03-10T15:43:00.334Z,21.70
2023-03-10T15:45:29.918Z,23.30
2023-03-10T15:47:57.687Z,21.35
2023-03-10T15:50:24.798Z,21.58
2023-03-10T15:52:54.224Z,22.90
2023-03-10T15:55:23.218Z,24.50
2023-03-10T15:57:50.472Z,24.25
2023-03-10T16:00:20.081Z,25.70
2023-03-10T16:02:47.995Z,24.85
2023-03-10T16:05:15.474Z,24.13
2023-03-10T16:07:42.504Z,23.80
2023-03-10T16:10:11.639Z,22.33
2023-03-10T16:12:38.597Z,25.33
2023-03-10T16:15:05.980Z,28.60
2023-03-10T16:17:32.951Z,29.52
2023-03-10T16:20:02.134Z,27.63
2023-03-10T16:22:29.068Z,31.15
2023-03-10T16:24:56.231Z,31.52
2023-03-10T16:27:23.175Z,26.17
2023-03-10T16:29:50.235Z,28.23
2023-03-10T16:32:19.778Z,28.45
2023-03-10T16:34:46.907Z,31.55
2023-03-10T16:37:13.948Z,28.30
2023-03-10T16:39:41.119Z,25.70
2023-03-10T16:42:08.054Z,23.02
2023-03-10T16:44:34.932Z,31.20
2023-03-10T16:47:01.842Z,32.85
2023-03-10T16:49:29.020Z,32.72
2023-03-10T16:51:55.840Z,35.65
2023-03-10T16:54:23.070Z,30.02
2023-03-10T16:56:52.750Z,29.25
2023-03-10T16:59:22.008Z,31.92
2023-03-10T17:01:50.289Z,32.88
2023-03-10T17:04:17.898Z,25.73
2023-03-10T17:06:45.504Z,30.27
2023-03-10T17:09:13.683Z,29.35
2023-03-10T17:11:45.045Z,26.60
2023-03-10T17:14:14.628Z,26.77
2023-03-10T17:16:42.866Z,26.27
2023-03-10T17:19:18.616Z,31.58
2023-03-10T17:21:49.068Z,27.42
2023-03-10T17:24:18.715Z,28.15
2023-03-10T17:26:46.473Z,22.60
2023-03-10T17:29:13.650Z,21.50
2023-03-10T17:31:40.722Z,21.40
2023-03-10T17:34:12.115Z,18.60
2023-03-10T17:36:39.157Z,15.00
2023-03-10T17:39:07.252Z,16.08
2023-03-10T17:41:35.952Z,16.08
2023-03-10T17:44:04.702Z,15.23
2023-03-10T17:46:32.024Z,16.52
2023-03-10T17:49:00.304Z,17.02
2023-03-10T17:51:30.275Z,20.90
2023-03-10T17:53:58.868Z,20.83
2023-03-10T17:56:26.545Z,19.55
2023-03-10T17:58:54.759Z,17.52
2023-03-10T18:01:27.123Z,21.20
2023-03-10T18:03:59.139Z,18.00
2023-03-10T18:06:29.314Z,18.42
2023-03-10T18:08:58.136Z,17.05
2023-03-10T18:11:25.834Z,20.40
2023-03-10T18:13:53.682Z,19.95
2023-03-10T18:16:26.455Z,19.13
2023-03-10T18:18:53.816Z,17.30
2023-03-10T18:21:22.779Z,19.00
2023-03-10T18:23:51.233Z,18.70
2023-03-10T18:26:24.275Z,22.38
2023-03-10T18:28:51.618Z,22.83
2023-03-10T18:31:21.855Z,20.92
2023-03-10T21:57:04.215Z,6.80
2023-03-10T21:59:31.092Z,5.10
2023-03-10T22:01:58.136Z,5.85
2023-03-10T22:04:25.019Z,9.60
2023-03-10T22:06:51.828Z,6.05
2023-03-10T22:09:18.698Z,7.63
2023-03-10T22:11:45.497Z,5.93
2023-03-10T22:14:12.803Z,7.10
2023-03-10T22:16:39.631Z,5.95
2023-03-10T22:19:06.608Z,8.73
2023-03-10T22:21:33.532Z,6.85
2023-03-10T22:24:00.308Z,8.93
2023-03-10T22:26:27.299Z,6.40
2023-03-10T22:28:54.598Z,7.97
2023-03-10T22:31:22.307Z,12.50
2023-03-10T22:33:49.206Z,6.32
2023-03-10T22:36:16.062Z,7.03
2023-03-10T22:38:42.899Z,3.85
2023-03-10T22:41:11.537Z,5.38
2023-03-10T22:43:38.677Z,7.50
2023-03-10T22:46:13.412Z,3.47
2023-03-10T22:48:40.583Z,6.50
2023-03-10T22:51:09.368Z,4.07
2023-03-10T22:53:38.123Z,14.00
2023-03-10T22:56:05.591Z,5.32
2023-03-10T22:58:32.495Z,5.70
2023-03-10T23:00:59.314Z,8.05
2023-03-10T23:03:26.287Z,5.13
2023-03-10T23:05:53.040Z,4.28
2023-03-10T23:08:20.204Z,4.00
2023-03-10T23:10:47.050Z,7.32
2023-03-10T23:13:16.412Z,3.60
2023-03-10T23:15:45.028Z,3.30
2023-03-10T23:18:15.995Z,4.57
2023-03-10T23:20:57.542Z,1.63
2023-03-10T23:23:29.471Z,6.53
2023-03-10T23:25:56.289Z,4.38
2023-03-10T23:31:51.996Z,5.22
2023-03-10T23:34:24.870Z,3.80
2023-03-10T23:36:51.759Z,5.40
2023-03-10T23:39:18.576Z,5.97
2023-03-10T23:41:45.425Z,5.55
2023-03-10T23:44:12.264Z,7.72
2023-03-10T23:46:39.106Z,8.00
2023-03-10T23:49:05.950Z,6.30
2023-03-10T23:51:32.791Z,7.00
2023-03-10T23:53:59.841Z,4.25
2023-03-10T23:56:26.649Z,4.88
2023-03-10T23:58:53.456Z,3.30
